Time;durP1;ratioP1;P1;durP2;ratioP2;P2;SDS_P1;SDS_P2;PMS_P1;PMS_P2;Temp;Humidity;BMP_temperature;BMP_pressure;BME280_temperature;BME280_humidity;BME280_pressure;Samples;Min_cycle;Max_cycle;Signal;HPM_P1;HPM_P2
2022/05/28 00:02:04;;;;;;;4.28;2.78;;;17.80;99.90;;;;;;5102948;28;20218;-83
2022/05/28 00:04:35;;;;;;;3.20;2.83;;;17.90;99.90;;;;;;5112370;28;20634;-82
2022/05/28 00:07:08;;;;;;;2.95;2.70;;;18.00;99.90;;;;;;5113977;27;20222;-82
2022/05/28 00:09:38;;;;;;;4.97;3.30;;;18.10;99.90;;;;;;5111262;28;20281;-83
2022/05/28 00:12:10;;;;;;;3.40;3.10;;;18.10;99.90;;;;;;5100396;28;20666;-83
2022/05/28 00:14:41;;;;;;;4.93;3.45;;;18.20;99.90;;;;;;5111384;28;20271;-83
2022/05/28 00:17:13;;;;;;;4.47;3.22;;;18.20;99.90;;;;;;5095008;28;20271;-83
2022/05/28 00:19:44;;;;;;;5.45;4.53;;;18.30;99.90;;;;;;5120652;27;20194;-83
2022/05/28 00:22:15;;;;;;;4.95;3.85;;;18.40;99.90;;;;;;5112311;28;20302;-83
2022/05/28 00:24:45;;;;;;;7.90;4.40;;;18.40;99.90;;;;;;5116778;27;20210;-84
2022/05/28 00:27:17;;;;;;;4.88;3.40;;;18.50;99.90;;;;;;5110324;28;20195;-84
2022/05/28 00:29:48;;;;;;;4.57;3.78;;;18.50;99.90;;;;;;5118497;27;20231;-84
2022/05/28 00:32:20;;;;;;;4.32;3.90;;;18.70;99.90;;;;;;5132093;27;20210;-84
2022/05/28 00:34:51;;;;;;;7.53;4.10;;;18.70;99.90;;;;;;5125142;27;20232;-84
2022/05/28 00:37:21;;;;;;;5.38;3.83;;;18.80;99.90;;;;;;5125732;27;20259;-83
2022/05/28 00:39:53;;;;;;;5.35;4.07;;;18.90;99.90;;;;;;5119400;27;20247;-83
2022/05/28 00:42:24;;;;;;;5.22;4.25;;;18.90;99.90;;;;;;5114496;27;20198;-83
2022/05/28 00:44:54;;;;;;;4.20;3.80;;;19.00;99.90;;;;;;5131806;27;20201;-83
2022/05/28 00:47:28;;;;;;;5.05;4.05;;;19.00;99.90;;;;;;5124626;27;20604;-83
2022/05/28 00:50:00;;;;;;;4.10;3.35;;;19.00;99.90;;;;;;5126659;27;20190;-82
2022/05/28 00:52:31;;;;;;;3.83;3.30;;;19.00;99.90;;;;;;5120632;27;20707;-82
2022/05/28 00:55:03;;;;;;;4.63;3.90;;;19.10;99.90;;;;;;5115434;27;20194;-83
2022/05/28 00:57:35;;;;;;;4.60;3.88;;;19.10;99.90;;;;;;5113459;27;20629;-82
2022/05/28 01:00:06;;;;;;;4.20;3.10;;;19.30;99.90;;;;;;5120085;28;20216;-83
2022/05/28 01:02:45;;;;;;;4.25;3.20;;;19.30;99.90;;;;;;5111212;28;20218;-83
2022/05/28 01:05:23;;;;;;;5.03;3.20;;;19.40;99.90;;;;;;5118926;28;20285;-83
2022/05/28 01:08:05;;;;;;;5.25;3.70;;;19.50;99.90;;;;;;5121006;27;20237;-83
2022/05/28 01:10:42;;;;;;;4.00;3.00;;;19.60;99.90;;;;;;5100324;27;20198;-83
2022/05/28 01:13:17;;;;;;;4.35;3.33;;;19.70;99.90;;;;;;5103746;28;20214;-83
2022/05/28 01:15:51;;;;;;;4.43;2.80;;;19.70;99.90;;;;;;5129743;28;20186;-85
2022/05/28 01:18:30;;;;;;;3.00;2.70;;;19.80;99.90;;;;;;5129590;28;20185;-85
2022/05/28 01:21:07;;;;;;;4.55;2.65;;;19.90;99.90;;;;;;5119646;28;20601;-85
2022/05/28 01:23:53;;;;;;;2.00;1.83;;;20.00;99.90;;;;;;5120063;27;20251;-84
2022/05/28 01:26:39;;;;;;;2.83;2.15;;;20.00;99.90;;;;;;5110429;28;20255;-86
2022/05/28 01:29:16;;;;;;;3.35;2.67;;;20.00;99.90;;;;;;5096483;28;20267;-84
2022/05/28 01:31:49;;;;;;;3.30;2.50;;;20.10;99.90;;;;;;5129901;27;20603;-84
2022/05/28 01:34:21;;;;;;;2.75;2.40;;;20.20;99.90;;;;;;5119619;27;20259;-83
2022/05/28 01:36:53;;;;;;;2.97;2.17;;;20.20;99.90;;;;;;5113236;28;20179;-83
2022/05/28 01:39:24;;;;;;;2.97;2.20;;;20.20;99.90;;;;;;5119796;28;20255;-82
2022/05/28 01:41:56;;;;;;;4.30;2.38;;;20.30;99.90;;;;;;5110467;28;20199;-83
2022/05/28 01:44:31;;;;;;;3.42;2.33;;;20.30;99.90;;;;;;5118326;28;20187;-84
2022/05/28 01:47:02;;;;;;;3.17;2.10;;;20.30;99.90;;;;;;5119320;27;20259;-82
2022/05/28 01:49:34;;;;;;;4.28;2.17;;;20.30;99.90;;;;;;5123258;27;20212;-84
2022/05/28 01:52:06;;;;;;;1.88;1.48;;;20.30;99.90;;;;;;5111181;27;20186;-83
2022/05/28 01:54:40;;;;;;;3.03;1.73;;;20.20;99.90;;;;;;5118178;27;20215;-84
2022/05/28 01:57:11;;;;;;;1.60;1.40;;;20.10;99.90;;;;;;5117555;28;20198;-84
2022/05/28 01:59:44;;;;;;;2.83;1.48;;;20.10;99.90;;;;;;5132167;27;20186;-85
2022/05/28 02:02:16;;;;;;;1.30;1.17;;;20.10;99.90;;;;;;5099906;28;20223;-85
2022/05/28 02:04:49;;;;;;;1.30;1.20;;;20.10;99.90;;;;;;5114431;27;20305;-85
2022/05/28 02:07:20;;;;;;;3.65;2.08;;;20.10;99.90;;;;;;5107529;28;20225;-85
2022/05/28 02:09:55;;;;;;;1.73;1.48;;;20.30;99.90;;;;;;5112093;27;20243;-84
2022/05/28 02:12:29;;;;;;;1.40;1.30;;;20.30;99.90;;;;;;5103951;27;20242;-84
2022/05/28 02:15:20;;;;;;;3.72;1.40;;;20.50;99.90;;;;;;5116373;27;20269;-83
2022/05/28 02:17:53;;;;;;;1.90;1.52;;;20.60;99.90;;;;;;5120947;27;20202;-85
2022/05/28 02:20:30;;;;;;;1.63;1.42;;;20.60;99.90;;;;;;5127164;27;20191;-82
2022/05/28 02:23:04;;;;;;;2.42;1.55;;;20.50;99.90;;;;;;5103861;27;20244;-84
2022/05/28 02:25:40;;;;;;;2.45;1.42;;;20.50;99.90;;;;;;5119930;27;20198;-85
2022/05/28 02:28:12;;;;;;;4.85;1.60;;;20.60;99.90;;;;;;5111209;27;20719;-84
2022/05/28 02:30:53;;;;;;;3.03;1.38;;;20.70;99.90;;;;;;5105154;28;20658;-85
2022/05/28 02:33:24;;;;;;;2.47;1.60;;;20.80;99.90;;;;;;5112152;28;20211;-84
2022/05/28 02:35:55;;;;;;;1.80;1.60;;;20.90;99.90;;;;;;5122772;27;20599;-85
2022/05/28 02:38:28;;;;;;;1.90;1.55;;;21.00;99.90;;;;;;5108458;28;20221;-84
2022/05/28 02:40:59;;;;;;;2.33;1.70;;;21.00;99.90;;;;;;5110168;27;20214;-85
2022/05/28 02:43:31;;;;;;;3.83;1.70;;;21.20;99.90;;;;;;5105419;27;20197;-84
2022/05/28 02:46:05;;;;;;;4.35;1.73;;;21.20;99.90;;;;;;5109547;27;20203;-84
2022/05/28 02:48:36;;;;;;;2.80;1.38;;;21.20;99.90;;;;;;5118684;27;20608;-83
2022/05/28 02:51:07;;;;;;;1.90;1.67;;;21.10;99.90;;;;;;5120507;27;20589;-84
2022/05/28 02:53:39;;;;;;;2.33;1.70;;;21.10;99.90;;;;;;5126319;27;20526;-83
2022/05/28 02:56:10;;;;;;;3.85;1.60;;;21.00;99.90;;;;;;5116445;27;20186;-83
2022/05/28 02:58:41;;;;;;;2.20;1.67;;;20.90;99.90;;;;;;5106987;28;20226;-83
2022/05/28 03:01:26;;;;;;;3.22;1.88;;;20.90;99.90;;;;;;5135222;27;20590;-84
2022/05/28 03:03:57;;;;;;;2.25;1.88;;;20.90;99.90;;;;;;5108686;27;20251;-83
2022/05/28 03:06:29;;;;;;;4.25;1.88;;;20.80;99.90;;;;;;5125524;27;20688;-84
2022/05/28 03:09:00;;;;;;;2.72;1.65;;;20.70;99.90;;;;;;5127920;27;20182;-83
2022/05/28 03:11:30;;;;;;;4.13;1.80;;;20.70;99.90;;;;;;5098657;27;20179;-83
2022/05/28 03:14:01;;;;;;;2.72;1.80;;;20.70;99.90;;;;;;5116904;27;20553;-84
2022/05/28 03:16:34;;;;;;;2.15;1.70;;;20.70;99.90;;;;;;5105029;28;20195;-84
2022/05/28 03:19:04;;;;;;;2.47;1.92;;;20.70;99.90;;;;;;5114451;28;20654;-84
2022/05/28 03:21:35;;;;;;;2.50;1.77;;;20.70;99.90;;;;;;5129876;27;20594;-84
2022/05/28 03:24:07;;;;;;;1.95;1.60;;;20.70;99.90;;;;;;5113134;28;20259;-84
2022/05/28 03:26:38;;;;;;;2.13;1.80;;;20.70;99.90;;;;;;5120573;27;20205;-83
2022/05/28 03:29:09;;;;;;;2.50;1.60;;;20.70;99.90;;;;;;5112897;28;20466;-82
2022/05/28 03:31:42;;;;;;;2.45;1.92;;;20.70;99.90;;;;;;5129332;27;20194;-84
2022/05/28 03:34:12;;;;;;;2.42;1.77;;;20.70;99.90;;;;;;5116543;27;20218;-82
2022/05/28 03:36:43;;;;;;;1.83;1.73;;;20.60;99.90;;;;;;5121804;27;20187;-81
2022/05/28 03:39:16;;;;;;;3.20;1.55;;;20.70;99.90;;;;;;5112806;28;20187;-82
2022/05/28 03:41:46;;;;;;;2.75;1.58;;;20.80;99.90;;;;;;5111192;27;20206;-85
2022/05/28 03:44:17;;;;;;;3.03;1.63;;;20.90;99.90;;;;;;5104652;27;20239;-84
2022/05/28 03:46:50;;;;;;;1.95;1.70;;;20.90;99.90;;;;;;5127961;27;20197;-84
2022/05/28 03:49:28;;;;;;;2.47;1.70;;;20.80;99.90;;;;;;5113412;28;20195;-83
2022/05/28 03:52:01;;;;;;;2.65;1.70;;;20.90;99.90;;;;;;5113306;28;20248;-86
2022/05/28 03:54:32;;;;;;;3.70;1.58;;;20.80;99.90;;;;;;5119811;27;20202;-86
2022/05/28 03:57:06;;;;;;;3.63;1.60;;;20.80;99.90;;;;;;5124613;27;20195;-85
2022/05/28 03:59:37;;;;;;;4.35;1.40;;;20.80;99.90;;;;;;5095012;28;20276;-85
2022/05/28 04:02:11;;;;;;;2.63;1.50;;;20.90;99.90;;;;;;5098750;28;20249;-86
2022/05/28 04:04:45;;;;;;;2.85;1.80;;;20.80;99.90;;;;;;5095446;28;20222;-85
2022/05/28 04:07:16;;;;;;;1.98;1.10;;;20.80;99.90;;;;;;5115883;27;20227;-86
2022/05/28 04:09:48;;;;;;;1.00;0.80;;;20.80;99.90;;;;;;5112909;28;20187;-86
2022/05/28 04:12:19;;;;;;;0.73;0.60;;;20.80;99.90;;;;;;5112298;28;20186;-87
2022/05/28 04:14:51;;;;;;;1.27;0.70;;;20.80;99.90;;;;;;5092825;28;20529;-85
2022/05/28 04:17:23;;;;;;;1.10;0.60;;;20.70;99.90;;;;;;5092084;28;20266;-86
2022/05/28 04:19:55;;;;;;;1.13;0.90;;;20.70;99.90;;;;;;5092189;28;20646;-86
2022/05/28 04:22:26;;;;;;;0.55;0.55;;;20.70;99.90;;;;;;5091901;28;20229;-87
2022/05/28 04:24:57;;;;;;;1.90;0.65;;;20.70;99.90;;;;;;5111302;27;20223;-85
2022/05/28 04:27:29;;;;;;;1.17;0.80;;;20.70;99.90;;;;;;5102593;28;20191;-85
2022/05/28 04:30:01;;;;;;;0.88;0.77;;;20.70;99.90;;;;;;5092052;28;20218;-84
2022/05/28 04:32:34;;;;;;;0.50;0.50;;;20.70;99.90;;;;;;5091549;28;20188;-86
2022/05/28 04:35:05;;;;;;;1.23;0.40;;;20.70;99.90;;;;;;5097068;27;20211;-86
2022/05/28 04:37:36;;;;;;;0.82;0.40;;;20.70;99.90;;;;;;5117591;27;20262;-86
2022/05/28 04:40:07;;;;;;;1.17;0.70;;;20.80;99.90;;;;;;5109833;27;20248;-86
2022/05/28 04:42:38;;;;;;;0.45;0.40;;;20.80;99.90;;;;;;5101449;28;20199;-85
2022/05/28 04:45:10;;;;;;;2.47;0.50;;;20.90;99.90;;;;;;5121685;27;20243;-85
2022/05/28 04:47:44;;;;;;;0.50;0.40;;;21.00;99.90;;;;;;5132179;27;20193;-86
2022/05/28 04:50:15;;;;;;;1.23;0.45;;;21.00;99.90;;;;;;5130818;27;20185;-85
2022/05/28 04:52:46;;;;;;;0.30;0.30;;;21.00;99.90;;;;;;5113034;28;20251;-86
2022/05/28 04:55:17;;;;;;;0.70;0.50;;;21.00;99.90;;;;;;5109754;28;20219;-86
2022/05/28 04:57:51;;;;;;;0.80;0.40;;;21.00;99.90;;;;;;5112394;28;20183;-85
2022/05/28 05:00:24;;;;;;;0.57;0.40;;;21.00;99.90;;;;;;5136748;28;20179;-85
2022/05/28 05:02:58;;;;;;;0.30;0.30;;;21.00;99.90;;;;;;5152323;27;20234;-85
2022/05/28 05:05:29;;;;;;;0.30;0.30;;;20.80;99.90;;;;;;5121674;27;20194;-85
2022/05/28 05:07:59;;;;;;;0.30;0.30;;;20.80;99.90;;;;;;5132715;27;20268;-86
2022/05/28 05:10:30;;;;;;;0.82;0.30;;;20.80;99.90;;;;;;5123495;27;20183;-86
2022/05/28 05:13:03;;;;;;;0.60;0.60;;;20.80;99.90;;;;;;5108863;28;20658;-85
2022/05/28 05:15:34;;;;;;;0.40;0.40;;;20.70;99.90;;;;;;5111057;28;20742;-86
2022/05/28 05:18:06;;;;;;;0.90;0.50;;;20.60;99.90;;;;;;5113531;28;20190;-86
2022/05/28 05:20:37;;;;;;;0.50;0.40;;;20.70;99.90;;;;;;5102110;27;20186;-85
2022/05/28 05:23:08;;;;;;;1.23;0.73;;;20.60;99.90;;;;;;5117201;27;20222;-85
2022/05/28 05:25:38;;;;;;;1.00;0.50;;;20.60;99.90;;;;;;5119887;27;20286;-86
2022/05/28 05:28:09;;;;;;;1.25;0.50;;;20.60;99.90;;;;;;5109706;27;20605;-86
2022/05/28 05:30:40;;;;;;;1.60;0.40;;;20.60;99.90;;;;;;5133684;27;20550;-84
2022/05/28 05:33:14;;;;;;;0.40;0.40;;;20.60;99.90;;;;;;5116217;28;20206;-84
2022/05/28 05:35:44;;;;;;;2.05;0.65;;;20.70;99.90;;;;;;5122468;27;20262;-83
2022/05/28 05:38:15;;;;;;;0.47;0.45;;;20.80;99.90;;;;;;5118559;27;20194;-82
2022/05/28 05:40:45;;;;;;;0.30;0.30;;;20.90;99.90;;;;;;5125525;27;20186;-83
2022/05/28 05:43:16;;;;;;;0.30;0.30;;;20.90;99.90;;;;;;5120797;27;20251;-82
2022/05/28 05:45:53;;;;;;;0.50;0.50;;;20.90;99.90;;;;;;5129800;27;20682;-84
2022/05/28 05:48:26;;;;;;;0.30;0.30;;;21.00;99.90;;;;;;5120271;27;20731;-84
2022/05/28 05:50:57;;;;;;;0.50;0.50;;;21.10;99.90;;;;;;5114632;28;20601;-83
2022/05/28 05:53:27;;;;;;;2.35;0.70;;;21.10;99.90;;;;;;5122855;27;20658;-83
2022/05/28 05:55:58;;;;;;;2.03;0.70;;;21.10;99.90;;;;;;5120853;27;20266;-84
2022/05/28 05:58:29;;;;;;;1.83;0.65;;;21.10;99.90;;;;;;5116251;27;20672;-84
2022/05/28 06:00:59;;;;;;;0.60;0.60;;;21.00;99.90;;;;;;5121023;27;20307;-84
2022/05/28 06:03:32;;;;;;;0.30;0.30;;;21.10;99.90;;;;;;5112905;28;20203;-84
2022/05/28 06:06:04;;;;;;;0.70;0.40;;;21.00;99.90;;;;;;5117594;27;20217;-84
2022/05/28 06:08:35;;;;;;;0.60;0.60;;;20.90;99.90;;;;;;5126169;27;20183;-84
2022/05/28 06:11:05;;;;;;;2.42;0.90;;;20.90;99.90;;;;;;5122350;27;20599;-83
2022/05/28 06:13:36;;;;;;;1.15;0.65;;;20.80;99.90;;;;;;5109337;27;20243;-84
2022/05/28 06:16:07;;;;;;;1.40;0.60;;;20.70;99.90;;;;;;5120965;27;20214;-84
2022/05/28 06:18:39;;;;;;;2.60;1.00;;;20.60;99.90;;;;;;5116685;27;20190;-83
2022/05/28 06:21:10;;;;;;;1.67;0.80;;;20.50;99.90;;;;;;5122365;27;20250;-85
2022/05/28 06:23:41;;;;;;;1.08;0.90;;;20.50;99.90;;;;;;5125370;27;20209;-84
2022/05/28 06:26:12;;;;;;;2.08;0.80;;;20.40;99.90;;;;;;5097264;28;20274;-83
2022/05/28 06:28:43;;;;;;;0.60;0.60;;;20.30;99.90;;;;;;5103431;28;20191;-82
2022/05/28 06:31:16;;;;;;;1.08;0.80;;;20.30;99.90;;;;;;5117616;27;20242;-83
2022/05/28 06:33:51;;;;;;;0.85;0.57;;;20.20;99.90;;;;;;5125430;27;20195;-87
2022/05/28 06:36:22;;;;;;;1.98;1.13;;;20.10;99.90;;;;;;5104612;28;20186;-88
2022/05/28 06:38:52;;;;;;;1.00;0.77;;;20.00;99.90;;;;;;5120600;27;20186;-87
2022/05/28 06:41:23;;;;;;;1.05;0.80;;;20.00;99.90;;;;;;5132423;27;20254;-89
2022/05/28 06:43:55;;;;;;;1.20;1.00;;;19.90;99.90;;;;;;5135589;27;20189;-87
2022/05/28 06:46:25;;;;;;;1.60;1.45;;;19.90;99.90;;;;;;5135507;27;20182;-88
2022/05/28 06:48:58;;;;;;;2.25;1.17;;;19.80;99.90;;;;;;5133902;27;20185;-86
2022/05/28 06:51:28;;;;;;;3.10;1.55;;;19.70;99.90;;;;;;5116522;27;20241;-87
2022/05/28 06:53:59;;;;;;;2.38;1.63;;;19.70;99.90;;;;;;5121307;27;20259;-84
2022/05/28 06:56:30;;;;;;;1.77;1.40;;;19.60;99.90;;;;;;5115429;28;20202;-88
2022/05/28 06:59:00;;;;;;;1.13;0.93;;;19.60;99.90;;;;;;5117509;28;20247;-86
2022/05/28 07:01:31;;;;;;;1.85;0.95;;;19.70;99.90;;;;;;5134223;27;20530;-86
2022/05/28 07:04:04;;;;;;;2.00;1.40;;;19.70;99.90;;;;;;5127253;27;20214;-81
2022/05/28 07:06:35;;;;;;;1.25;1.05;;;19.60;99.90;;;;;;5117908;27;20310;-84
2022/05/28 07:09:07;;;;;;;2.42;0.98;;;19.50;99.90;;;;;;5112849;28;20632;-81
2022/05/28 07:11:38;;;;;;;1.98;1.10;;;19.50;99.90;;;;;;5105654;27;20222;-80
2022/05/28 07:14:08;;;;;;;1.65;1.02;;;19.40;99.90;;;;;;5114024;27;20253;-79
2022/05/28 07:16:40;;;;;;;1.77;0.90;;;19.30;99.90;;;;;;5112631;27;20588;-81
2022/05/28 07:19:14;;;;;;;2.35;1.05;;;19.30;99.90;;;;;;5109857;27;20192;-84
2022/05/28 07:21:45;;;;;;;1.67;1.27;;;19.30;99.90;;;;;;5116093;27;20696;-81
2022/05/28 07:24:15;;;;;;;1.83;1.40;;;19.30;99.90;;;;;;5116497;27;20197;-83
2022/05/28 07:26:46;;;;;;;4.43;1.70;;;19.20;99.90;;;;;;5131761;27;20210;-82
2022/05/28 07:29:16;;;;;;;2.13;1.45;;;19.20;99.90;;;;;;5115680;27;20186;-83
2022/05/28 07:31:47;;;;;;;2.53;1.85;;;19.20;99.90;;;;;;5113123;27;20222;-83
2022/05/28 07:34:20;;;;;;;5.28;1.95;;;19.10;99.90;;;;;;5111722;27;20696;-81
2022/05/28 07:36:50;;;;;;;1.85;1.65;;;19.10;99.90;;;;;;5104935;27;20199;-81
2022/05/28 07:39:22;;;;;;;3.63;2.78;;;19.10;99.90;;;;;;5112113;27;20198;-82
2022/05/28 07:41:53;;;;;;;3.15;2.17;;;19.10;99.90;;;;;;5101221;27;20203;-82
2022/05/28 07:44:23;;;;;;;2.15;1.80;;;19.10;99.90;;;;;;5103790;27;20209;-80
2022/05/28 07:46:54;;;;;;;4.70;2.47;;;19.10;99.90;;;;;;5101067;27;20240;-81
2022/05/28 07:49:27;;;;;;;5.28;2.75;;;19.00;99.90;;;;;;5109285;28;20239;-83
2022/05/28 07:51:58;;;;;;;3.80;2.67;;;19.00;99.90;;;;;;5110880;27;20195;-82
2022/05/28 07:54:30;;;;;;;4.90;3.22;;;19.00;99.90;;;;;;5120268;27;20202;-82
2022/05/28 07:57:01;;;;;;;6.00;3.70;;;18.90;99.90;;;;;;5107172;27;20266;-81
2022/05/28 07:59:31;;;;;;;5.95;3.38;;;18.90;99.90;;;;;;5102689;27;20243;-81
2022/05/28 08:02:02;;;;;;;4.72;3.10;;;18.90;99.90;;;;;;5119216;27;20195;-81
2022/05/28 08:04:34;;;;;;;3.63;2.50;;;18.90;99.90;;;;;;5108058;27;20214;-81
2022/05/28 08:07:05;;;;;;;3.35;2.50;;;18.80;99.90;;;;;;5100674;27;20214;-81
2022/05/28 08:09:35;;;;;;;4.20;3.10;;;18.80;99.90;;;;;;5110245;27;20259;-80
2022/05/28 08:12:07;;;;;;;7.65;3.53;;;18.80;99.90;;;;;;5105161;28;20597;-81
2022/05/28 08:14:37;;;;;;;4.75;3.30;;;18.80;99.90;;;;;;5104947;27;20191;-79
2022/05/28 08:17:08;;;;;;;3.80;2.83;;;18.70;99.90;;;;;;5104791;28;20195;-80
2022/05/28 08:19:41;;;;;;;4.70;3.03;;;18.70;99.90;;;;;;5100416;27;20199;-79
2022/05/28 08:24:58;;;;;;;4.70;2.58;;;18.70;99.90;;;;;;5099994;28;20233;-78
2022/05/28 08:27:30;;;;;;;4.20;3.22;;;18.60;99.90;;;;;;5107063;28;20191;-79
2022/05/28 08:30:01;;;;;;;5.93;3.17;;;18.70;99.90;;;;;;5106857;27;20232;-79
2022/05/28 08:32:32;;;;;;;4.50;3.05;;;18.60;99.90;;;;;;5109256;27;20267;-80
2022/05/28 08:35:04;;;;;;;6.68;3.20;;;18.60;99.90;;;;;;5108107;28;20271;-80
2022/05/28 08:37:35;;;;;;;4.47;2.97;;;18.60;99.90;;;;;;5107298;28;20191;-80
2022/05/28 08:40:06;;;;;;;6.18;3.45;;;18.60;99.90;;;;;;5114613;27;20239;-81
2022/05/28 08:42:37;;;;;;;5.32;3.10;;;18.60;99.90;;;;;;5107908;28;20202;-80
2022/05/28 08:45:09;;;;;;;4.28;2.70;;;18.60;99.90;;;;;;5104682;27;20199;-80
2022/05/28 08:47:43;;;;;;;6.20;3.90;;;18.50;99.90;;;;;;5110928;28;20588;-80
2022/05/28 08:50:16;;;;;;;8.02;3.80;;;18.60;99.90;;;;;;5110796;27;20244;-80
2022/05/28 08:52:50;;;;;;;4.65;3.33;;;18.60;99.90;;;;;;5115320;27;20250;-79
2022/05/28 08:55:24;;;;;;;4.32;3.50;;;18.50;99.90;;;;;;5110845;28;20298;-78
2022/05/28 08:58:00;;;;;;;9.63;3.75;;;18.50;99.90;;;;;;5117197;27;20281;-78
2022/05/28 09:00:40;;;;;;;5.85;3.20;;;18.40;99.90;;;;;;5109828;28;20694;-80
2022/05/28 09:03:14;;;;;;;6.00;3.97;;;18.40;99.90;;;;;;5110899;28;20194;-79
2022/05/28 09:05:52;;;;;;;6.90;4.22;;;18.50;99.90;;;;;;5110772;28;20250;-78
2022/05/28 09:08:32;;;;;;;3.42;2.33;;;18.40;99.90;;;;;;5110957;28;20191;-78
2022/05/28 09:11:06;;;;;;;6.82;4.82;;;18.40;99.90;;;;;;5115380;28;20203;-78
2022/05/28 09:13:42;;;;;;;3.92;2.75;;;18.40;99.90;;;;;;5100276;28;20710;-80
2022/05/28 09:16:25;;;;;;;5.25;3.60;;;18.40;99.90;;;;;;5110323;28;20749;-78
2022/05/28 09:18:57;;;;;;;4.78;2.38;;;18.40;99.90;;;;;;5118729;28;20199;-79
2022/05/28 09:21:29;;;;;;;3.78;2.50;;;18.40;99.90;;;;;;5110638;28;20198;-79
2022/05/28 09:24:03;;;;;;;3.30;2.25;;;18.40;99.90;;;;;;5110456;28;20267;-80
2022/05/28 09:26:39;;;;;;;3.25;2.42;;;18.30;99.90;;;;;;5120643;28;20194;-80
2022/05/28 09:29:19;;;;;;;2.50;1.80;;;18.30;99.90;;;;;;5107460;28;20193;-80
2022/05/28 09:32:01;;;;;;;2.90;2.00;;;18.30;99.90;;;;;;5106237;28;20209;-82
2022/05/28 09:34:41;;;;;;;2.85;2.28;;;18.30;99.90;;;;;;5112459;27;20607;-80
2022/05/28 09:37:23;;;;;;;4.07;2.40;;;18.30;99.90;;;;;;5110422;28;20622;-80
2022/05/28 09:40:01;;;;;;;4.07;2.58;;;18.20;99.90;;;;;;5110010;28;20259;-80
2022/05/28 09:42:52;;;;;;;4.53;3.28;;;18.20;99.90;;;;;;5107277;28;20286;-80
2022/05/28 09:45:28;;;;;;;6.38;3.78;;;18.20;99.90;;;;;;5115057;28;20239;-79
2022/05/28 09:47:58;;;;;;;5.30;3.33;;;18.10;99.90;;;;;;5134025;28;20250;-83
2022/05/28 09:50:30;;;;;;;4.88;3.85;;;18.10;99.90;;;;;;5119551;27;20190;-81
2022/05/28 09:56:01;;;;;;;5.40;4.07;;;18.00;99.90;;;;;;5109312;28;20214;-78
2022/05/28 09:58:33;;;;;;;5.50;4.30;;;18.00;99.90;;;;;;5108334;28;20206;-78
2022/05/28 10:01:10;;;;;;;5.25;3.85;;;17.90;99.90;;;;;;5117354;28;20636;-79
2022/05/28 10:06:32;;;;;;;9.60;5.53;;;17.90;99.90;;;;;;5105034;28;20726;-79
2022/05/28 10:09:16;;;;;;;6.65;4.63;;;17.90;99.90;;;;;;5113771;28;20282;-79
2022/05/28 10:11:57;;;;;;;7.65;4.20;;;17.80;99.90;;;;;;5106343;27;20216;-80
2022/05/28 10:14:30;;;;;;;5.43;4.00;;;17.80;99.90;;;;;;5110636;27;20198;-77
2022/05/28 10:17:02;;;;;;;3.95;3.17;;;17.70;99.90;;;;;;5113596;27;20254;-78
2022/05/28 10:19:37;;;;;;;4.68;3.55;;;17.70;99.90;;;;;;5123713;27;20608;-76
2022/05/28 10:22:13;;;;;;;5.65;3.75;;;17.60;99.90;;;;;;5115177;27;20202;-77
2022/05/28 10:24:49;;;;;;;7.20;3.75;;;17.50;99.90;;;;;;5105191;28;20239;-77
2022/05/28 10:27:31;;;;;;;6.07;3.85;;;17.50;99.90;;;;;;5111681;27;20202;-77
2022/05/28 10:30:04;;;;;;;5.25;4.30;;;17.40;99.90;;;;;;5106938;28;20194;-78
2022/05/28 10:32:37;;;;;;;5.68;3.80;;;17.40;99.90;;;;;;5107585;28;20290;-79
2022/05/28 10:35:15;;;;;;;5.82;3.95;;;17.40;99.90;;;;;;5113107;27;20193;-80
2022/05/28 10:37:46;;;;;;;4.70;3.17;;;17.40;99.90;;;;;;5113024;27;20202;-80
2022/05/28 10:40:22;;;;;;;5.13;3.42;;;17.30;99.90;;;;;;5111911;27;20262;-78
2022/05/28 10:42:58;;;;;;;6.40;3.88;;;17.30;99.90;;;;;;5111446;27;20206;-79
2022/05/28 10:45:36;;;;;;;6.68;4.45;;;17.30;99.90;;;;;;5107591;27;20187;-79
2022/05/28 10:48:23;;;;;;;4.10;3.30;;;17.20;99.90;;;;;;5113056;28;20194;-78
2022/05/28 10:51:04;;;;;;;4.35;3.00;;;17.20;99.90;;;;;;5113003;27;20251;-77
2022/05/28 10:53:56;;;;;;;3.42;2.95;;;17.20;99.90;;;;;;5104527;28;20190;-80
2022/05/28 10:56:48;;;;;;;4.15;3.10;;;17.20;99.90;;;;;;5112390;27;20745;-80
2022/05/28 10:59:39;;;;;;;4.38;3.15;;;17.20;99.90;;;;;;5106380;28;20556;-79
2022/05/28 11:02:30;;;;;;;6.45;3.60;;;17.20;99.90;;;;;;5112930;28;20183;-77
2022/05/28 11:05:11;;;;;;;4.60;3.53;;;17.10;99.90;;;;;;5112923;28;20232;-78
2022/05/28 11:07:58;;;;;;;4.43;2.95;;;17.00;99.90;;;;;;5117925;27;20230;-79
2022/05/28 11:10:53;;;;;;;5.10;3.28;;;17.00;99.90;;;;;;5115146;27;20710;-78
2022/05/28 11:13:41;;;;;;;4.03;2.72;;;17.00;99.90;;;;;;5106917;27;20191;-81
2022/05/28 11:16:47;;;;;;;3.92;2.60;;;17.00;99.90;;;;;;5105822;27;20257;-80
2022/05/28 11:19:34;;;;;;;4.40;2.75;;;17.00;99.90;;;;;;5112721;27;20273;-81
2022/05/28 11:22:24;;;;;;;4.07;2.90;;;16.90;99.90;;;;;;5132241;27;20206;-80
2022/05/28 11:25:01;;;;;;;3.55;2.92;;;17.00;99.90;;;;;;5107607;27;20649;-80
2022/05/28 11:27:56;;;;;;;5.68;3.20;;;17.00;99.90;;;;;;5115316;27;20195;-80
2022/05/28 11:30:32;;;;;;;5.18;3.28;;;16.90;99.90;;;;;;5116722;27;20199;-82
2022/05/28 11:33:07;;;;;;;5.65;3.30;;;16.90;99.90;;;;;;5112164;27;20210;-80
2022/05/28 11:35:42;;;;;;;5.65;4.00;;;16.80;99.90;;;;;;5112177;28;20194;-81
2022/05/28 11:38:19;;;;;;;4.40;2.90;;;16.80;99.90;;;;;;5120668;27;20194;-81
2022/05/28 11:40:56;;;;;;;5.18;3.83;;;16.80;99.90;;;;;;5128265;27;20198;-80
2022/05/28 11:43:30;;;;;;;5.15;3.40;;;16.80;99.90;;;;;;5110894;27;20666;-78
2022/05/28 11:46:07;;;;;;;3.55;3.00;;;16.80;99.90;;;;;;5111070;27;20665;-78
2022/05/28 11:51:43;;;;;;;3.53;2.53;;;16.80;99.90;;;;;;5111859;28;20710;-79
2022/05/28 11:54:18;;;;;;;2.30;2.10;;;16.80;99.90;;;;;;5112440;27;20244;-79
2022/05/28 11:56:51;;;;;;;2.95;2.42;;;16.70;99.90;;;;;;5112764;27;20214;-77
2022/05/28 11:59:27;;;;;;;3.80;1.92;;;16.70;99.90;;;;;;5108805;27;20598;-78
2022/05/28 12:02:05;;;;;;;2.58;1.90;;;16.70;99.90;;;;;;5106339;27;20655;-78
2022/05/28 12:04:40;;;;;;;3.75;2.13;;;16.70;99.90;;;;;;5109053;27;20729;-77
2022/05/28 12:07:13;;;;;;;3.17;2.10;;;16.70;99.90;;;;;;5111821;27;20233;-77
2022/05/28 12:09:47;;;;;;;3.47;1.90;;;16.70;99.90;;;;;;5109385;27;20283;-81
2022/05/28 12:12:21;;;;;;;3.58;2.28;;;16.70;99.90;;;;;;5110018;27;20198;-78
2022/05/28 12:15:06;;;;;;;4.22;2.28;;;16.70;99.90;;;;;;5110438;27;20247;-78
2022/05/28 12:17:39;;;;;;;3.97;2.35;;;16.70;99.90;;;;;;5114051;27;20222;-78
2022/05/28 12:20:13;;;;;;;3.65;2.15;;;16.70;99.90;;;;;;5112136;27;20251;-78
2022/05/28 12:22:57;;;;;;;2.95;2.20;;;16.70;99.90;;;;;;5111582;28;20198;-78
2022/05/28 12:25:36;;;;;;;2.53;1.80;;;16.60;99.90;;;;;;5111544;28;20199;-81
2022/05/28 12:28:25;;;;;;;4.82;2.17;;;16.60;99.90;;;;;;5111511;28;20198;-79
2022/05/28 12:31:02;;;;;;;2.90;1.75;;;16.70;99.90;;;;;;5110538;28;20195;-81
2022/05/28 12:33:52;;;;;;;3.08;1.90;;;16.60;99.90;;;;;;5104974;27;20214;-79
2022/05/28 12:36:30;;;;;;;3.10;2.03;;;16.60;99.90;;;;;;5112013;27;20222;-87
2022/05/28 12:39:06;;;;;;;3.78;2.13;;;16.60;99.90;;;;;;5111906;27;20198;-82
2022/05/28 12:41:39;;;;;;;5.13;2.20;;;16.60;99.90;;;;;;5116997;27;20189;-79
2022/05/28 12:44:19;;;;;;;3.45;2.45;;;16.50;99.90;;;;;;5131593;27;20239;-78
2022/05/28 12:46:54;;;;;;;4.30;2.50;;;16.50;99.90;;;;;;5132001;27;20602;-79
2022/05/28 12:49:34;;;;;;;4.18;2.42;;;16.50;99.90;;;;;;5131135;27;20196;-79
2022/05/28 12:52:30;;;;;;;3.10;2.35;;;16.50;99.90;;;;;;5116400;27;20277;-80
2022/05/28 12:55:19;;;;;;;2.65;2.28;;;16.40;99.90;;;;;;5104856;28;20282;-80
2022/05/28 12:58:03;;;;;;;3.30;2.20;;;16.30;99.90;;;;;;5111087;28;20637;-79
2022/05/28 13:00:39;;;;;;;3.65;2.40;;;16.30;99.90;;;;;;5111294;28;20182;-78
2022/05/28 13:03:11;;;;;;;3.85;2.38;;;16.30;99.90;;;;;;5111036;28;20193;-78
2022/05/28 13:05:47;;;;;;;4.63;2.70;;;16.20;99.90;;;;;;5111217;28;20198;-79
2022/05/28 13:08:22;;;;;;;3.25;2.67;;;16.20;99.90;;;;;;5111598;28;20218;-78
2022/05/28 13:10:56;;;;;;;3.45;2.20;;;16.20;99.90;;;;;;5111690;28;20194;-78
2022/05/28 13:13:54;;;;;;;3.70;2.60;;;16.20;99.90;;;;;;5111190;28;20273;-78
2022/05/28 13:16:56;;;;;;;2.83;2.55;;;16.10;99.90;;;;;;5110413;28;20279;-79
2022/05/28 13:19:46;;;;;;;3.53;2.80;;;16.10;99.90;;;;;;5080080;28;20251;-77
2022/05/28 13:22:35;;;;;;;6.28;2.67;;;16.10;99.90;;;;;;5110944;28;20187;-78
2022/05/28 13:25:21;;;;;;;3.58;2.90;;;16.10;99.90;;;;;;5118013;28;20209;-79
2022/05/28 13:28:41;;;;;;;3.60;2.35;;;16.00;99.90;;;;;;5111052;28;20243;-79
2022/05/28 13:31:13;;;;;;;3.08;2.30;;;16.00;99.90;;;;;;5108745;28;20243;-79
2022/05/28 13:33:44;;;;;;;4.57;2.33;;;16.00;99.90;;;;;;5111346;28;20215;-79
2022/05/28 13:36:17;;;;;;;4.22;2.53;;;16.00;99.90;;;;;;5110800;28;20198;-79
2022/05/28 13:38:52;;;;;;;3.63;2.50;;;16.00;99.90;;;;;;5111192;28;20240;-78